Terminal Aerodrome Forecast
Issued by NWS

Home | Current Version | Previous Version | Graphics & Text | Print | Product List | Glossary On
Versions: 1 2 3 4 5 6 7 8 9 10 11 12 13 14 15 16 17 18 19 20 21 22
000
FTUS43 KGRB 161316 AAA
TAFAUW
TAF AMD
KAUW 161316Z 1613/1712 10008KT P6SM SCT005 BKN120
      TEMPO 1613/1614 5SM BR BKN005
     FM161500 11006KT P6SM SCT010 BKN100
     FM161800 12008KT P6SM BKN080 BKN200
     FM170100 10008KT P6SM VCSH SCT030 BKN050
     FM170400 12008KT 5SM SHRA VCTS BKN012CB
     FM170700 11007KT 2SM SHRA BR VCTS OVC005CB=

USA.gov is the U.S. government's official web portal to all federal, state and local government web resources and services.